sensor_id;sensor_type;location;lat;lon;timestamp;P1;durP1;ratioP1;P2;durP2;ratioP2
10088;SDS011;51898;49.864;8.550;2024-02-14T00:00:23;4.87;;;3.70;;
10088;SDS011;51898;49.864;8.550;2024-02-14T00:03:26;7.53;;;4.40;;
10088;SDS011;51898;49.864;8.550;2024-02-14T00:06:28;7.40;;;4.50;;
10088;SDS011;51898;49.864;8.550;2024-02-14T00:09:29;5.33;;;4.17;;
10088;SDS011;51898;49.864;8.550;2024-02-14T00:12:32;10.00;;;5.10;;
10088;SDS011;51898;49.864;8.550;2024-02-14T00:15:34;13.23;;;4.33;;
10088;SDS011;51898;49.864;8.550;2024-02-14T00:18:36;7.53;;;4.73;;
10088;SDS011;51898;49.864;8.550;2024-02-14T00:21:38;8.27;;;5.00;;
10088;SDS011;51898;49.864;8.550;2024-02-14T00:24:40;7.40;;;4.70;;
10088;SDS011;51898;49.864;8.550;2024-02-14T00:27:41;10.10;;;5.27;;
10088;SDS011;51898;49.864;8.550;2024-02-14T00:30:43;8.47;;;5.67;;
10088;SDS011;51898;49.864;8.550;2024-02-14T00:33:45;7.83;;;5.07;;
10088;SDS011;51898;49.864;8.550;2024-02-14T00:36:47;5.70;;;4.70;;
10088;SDS011;51898;49.864;8.550;2024-02-14T00:39:49;11.03;;;5.40;;
10088;SDS011;51898;49.864;8.550;2024-02-14T00:42:54;9.20;;;5.00;;
10088;SDS011;51898;49.864;8.550;2024-02-14T00:45:56;7.60;;;4.90;;
10088;SDS011;51898;49.864;8.550;2024-02-14T00:48:58;8.50;;;5.17;;
10088;SDS011;51898;49.864;8.550;2024-02-14T00:52:00;9.33;;;4.77;;
10088;SDS011;51898;49.864;8.550;2024-02-14T00:55:02;5.60;;;4.27;;
10088;SDS011;51898;49.864;8.550;2024-02-14T00:58:04;7.60;;;3.93;;
10088;SDS011;51898;49.864;8.550;2024-02-14T01:01:06;6.03;;;3.93;;
10088;SDS011;51898;49.864;8.550;2024-02-14T01:04:08;6.47;;;3.87;;
10088;SDS011;51898;49.864;8.550;2024-02-14T01:07:09;5.00;;;3.47;;
10088;SDS011;51898;49.864;8.550;2024-02-14T01:10:11;5.30;;;3.30;;
10088;SDS011;51898;49.864;8.550;2024-02-14T01:13:13;4.50;;;3.40;;
10088;SDS011;51898;49.864;8.550;2024-02-14T01:16:14;4.20;;;3.43;;
10088;SDS011;51898;49.864;8.550;2024-02-14T01:19:16;6.13;;;3.43;;
10088;SDS011;51898;49.864;8.550;2024-02-14T01:22:20;7.23;;;3.40;;
10088;SDS011;51898;49.864;8.550;2024-02-14T01:25:22;8.70;;;3.83;;
10088;SDS011;51898;49.864;8.550;2024-02-14T01:28:24;5.40;;;4.03;;
10088;SDS011;51898;49.864;8.550;2024-02-14T01:31:26;7.60;;;3.77;;
10088;SDS011;51898;49.864;8.550;2024-02-14T01:34:28;5.23;;;3.47;;
10088;SDS011;51898;49.864;8.550;2024-02-14T01:37:30;6.40;;;4.80;;
10088;SDS011;51898;49.864;8.550;2024-02-14T01:40:32;4.90;;;3.87;;
10088;SDS011;51898;49.864;8.550;2024-02-14T01:43:34;6.77;;;4.50;;
10088;SDS011;51898;49.864;8.550;2024-02-14T01:46:35;5.83;;;3.77;;
10088;SDS011;51898;49.864;8.550;2024-02-14T01:49:37;5.97;;;4.07;;
10088;SDS011;51898;49.864;8.550;2024-02-14T01:52:39;6.70;;;4.03;;
10088;SDS011;51898;49.864;8.550;2024-02-14T01:55:42;5.50;;;3.90;;
10088;SDS011;51898;49.864;8.550;2024-02-14T01:58:43;7.60;;;4.00;;
10088;SDS011;51898;49.864;8.550;2024-02-14T02:01:46;10.77;;;5.30;;
10088;SDS011;51898;49.864;8.550;2024-02-14T02:04:47;7.70;;;4.03;;
10088;SDS011;51898;49.864;8.550;2024-02-14T02:07:49;7.97;;;4.30;;
10088;SDS011;51898;49.864;8.550;2024-02-14T02:10:51;8.20;;;4.57;;
10088;SDS011;51898;49.864;8.550;2024-02-14T02:13:53;8.00;;;4.53;;
10088;SDS011;51898;49.864;8.550;2024-02-14T02:16:54;6.40;;;4.93;;
10088;SDS011;51898;49.864;8.550;2024-02-14T02:19:56;5.60;;;4.50;;
10088;SDS011;51898;49.864;8.550;2024-02-14T02:22:59;7.47;;;4.50;;
10088;SDS011;51898;49.864;8.550;2024-02-14T02:26:01;7.50;;;3.97;;
10088;SDS011;51898;49.864;8.550;2024-02-14T02:29:03;8.67;;;4.50;;
10088;SDS011;51898;49.864;8.550;2024-02-14T02:32:07;7.30;;;4.23;;
10088;SDS011;51898;49.864;8.550;2024-02-14T02:35:10;6.43;;;4.00;;
10088;SDS011;51898;49.864;8.550;2024-02-14T02:38:12;6.57;;;3.93;;
10088;SDS011;51898;49.864;8.550;2024-02-14T02:41:15;6.93;;;4.00;;
10088;SDS011;51898;49.864;8.550;2024-02-14T02:44:17;8.20;;;4.20;;
10088;SDS011;51898;49.864;8.550;2024-02-14T02:47:18;6.30;;;3.83;;
10088;SDS011;51898;49.864;8.550;2024-02-14T02:50:20;11.10;;;4.30;;
10088;SDS011;51898;49.864;8.550;2024-02-14T02:53:22;5.80;;;3.80;;
10088;SDS011;51898;49.864;8.550;2024-02-14T02:56:25;6.67;;;3.90;;
10088;SDS011;51898;49.864;8.550;2024-02-14T02:59:29;7.50;;;4.10;;
10088;SDS011;51898;49.864;8.550;2024-02-14T03:02:31;7.40;;;4.07;;
10088;SDS011;51898;49.864;8.550;2024-02-14T03:05:32;6.10;;;4.43;;
10088;SDS011;51898;49.864;8.550;2024-02-14T03:08:34;6.60;;;4.70;;
10088;SDS011;51898;49.864;8.550;2024-02-14T03:11:37;6.43;;;4.50;;
10088;SDS011;51898;49.864;8.550;2024-02-14T03:14:39;6.60;;;4.40;;
10088;SDS011;51898;49.864;8.550;2024-02-14T03:17:42;5.80;;;4.60;;
10088;SDS011;51898;49.864;8.550;2024-02-14T03:20:44;6.87;;;4.00;;
10088;SDS011;51898;49.864;8.550;2024-02-14T03:23:48;8.70;;;4.67;;
10088;SDS011;51898;49.864;8.550;2024-02-14T03:26:50;7.70;;;4.87;;
10088;SDS011;51898;49.864;8.550;2024-02-14T03:29:52;6.60;;;4.60;;
10088;SDS011;51898;49.864;8.550;2024-02-14T03:32:56;9.07;;;3.93;;
10088;SDS011;51898;49.864;8.550;2024-02-14T03:35:58;8.30;;;4.40;;
10088;SDS011;51898;49.864;8.550;2024-02-14T03:39:00;8.20;;;4.73;;
10088;SDS011;51898;49.864;8.550;2024-02-14T03:42:05;6.97;;;4.40;;
10088;SDS011;51898;49.864;8.550;2024-02-14T03:45:09;8.67;;;4.60;;
10088;SDS011;51898;49.864;8.550;2024-02-14T03:48:11;9.50;;;4.17;;
10088;SDS011;51898;49.864;8.550;2024-02-14T03:51:13;7.63;;;4.50;;
10088;SDS011;51898;49.864;8.550;2024-02-14T03:54:15;7.27;;;4.57;;
10088;SDS011;51898;49.864;8.550;2024-02-14T03:57:20;6.40;;;4.50;;
10088;SDS011;51898;49.864;8.550;2024-02-14T04:00:22;6.90;;;4.50;;
10088;SDS011;51898;49.864;8.550;2024-02-14T04:03:23;5.70;;;4.53;;
10088;SDS011;51898;49.864;8.550;2024-02-14T04:06:25;7.17;;;4.37;;
10088;SDS011;51898;49.864;8.550;2024-02-14T04:09:28;7.00;;;5.87;;
10088;SDS011;51898;49.864;8.550;2024-02-14T04:12:30;7.47;;;4.83;;
10088;SDS011;51898;49.864;8.550;2024-02-14T04:15:34;6.53;;;4.57;;
10088;SDS011;51898;49.864;8.550;2024-02-14T04:18:36;11.57;;;5.00;;
10088;SDS011;51898;49.864;8.550;2024-02-14T04:21:38;9.27;;;4.80;;
10088;SDS011;51898;49.864;8.550;2024-02-14T04:24:40;6.80;;;4.30;;
10088;SDS011;51898;49.864;8.550;2024-02-14T04:27:41;4.60;;;3.90;;
10088;SDS011;51898;49.864;8.550;2024-02-14T04:30:43;8.00;;;4.77;;
10088;SDS011;51898;49.864;8.550;2024-02-14T04:33:45;8.00;;;4.13;;
10088;SDS011;51898;49.864;8.550;2024-02-14T04:36:53;6.33;;;4.40;;
10088;SDS011;51898;49.864;8.550;2024-02-14T04:39:54;9.83;;;4.43;;
10088;SDS011;51898;49.864;8.550;2024-02-14T04:42:56;5.57;;;4.27;;
10088;SDS011;51898;49.864;8.550;2024-02-14T04:45:58;8.77;;;4.67;;
10088;SDS011;51898;49.864;8.550;2024-02-14T04:49:00;6.80;;;4.50;;
10088;SDS011;51898;49.864;8.550;2024-02-14T04:52:04;7.73;;;4.73;;
10088;SDS011;51898;49.864;8.550;2024-02-14T04:55:06;11.40;;;4.83;;
10088;SDS011;51898;49.864;8.550;2024-02-14T04:58:08;7.87;;;4.80;;
10088;SDS011;51898;49.864;8.550;2024-02-14T05:01:10;6.97;;;4.03;;
10088;SDS011;51898;49.864;8.550;2024-02-14T05:04:12;8.73;;;4.43;;
10088;SDS011;51898;49.864;8.550;2024-02-14T05:07:14;7.63;;;5.23;;
10088;SDS011;51898;49.864;8.550;2024-02-14T05:10:17;7.90;;;4.90;;
10088;SDS011;51898;49.864;8.550;2024-02-14T05:13:19;7.20;;;4.50;;
10088;SDS011;51898;49.864;8.550;2024-02-14T05:16:20;7.07;;;5.10;;
10088;SDS011;51898;49.864;8.550;2024-02-14T05:19:22;7.43;;;5.33;;
10088;SDS011;51898;49.864;8.550;2024-02-14T05:22:24;7.83;;;4.47;;
10088;SDS011;51898;49.864;8.550;2024-02-14T05:25:26;9.00;;;4.73;;
10088;SDS011;51898;49.864;8.550;2024-02-14T05:28:30;9.23;;;5.40;;
10088;SDS011;51898;49.864;8.550;2024-02-14T05:31:53;6.10;;;4.50;;
10088;SDS011;51898;49.864;8.550;2024-02-14T05:34:57;6.80;;;5.27;;
10088;SDS011;51898;49.864;8.550;2024-02-14T05:38:00;7.37;;;5.03;;
10088;SDS011;51898;49.864;8.550;2024-02-14T05:41:05;8.80;;;4.93;;
10088;SDS011;51898;49.864;8.550;2024-02-14T05:44:08;7.77;;;4.87;;
10088;SDS011;51898;49.864;8.550;2024-02-14T05:47:10;8.93;;;4.80;;
10088;SDS011;51898;49.864;8.550;2024-02-14T05:50:12;8.47;;;4.83;;
10088;SDS011;51898;49.864;8.550;2024-02-14T05:53:14;8.10;;;5.10;;
10088;SDS011;51898;49.864;8.550;2024-02-14T05:56:16;7.10;;;5.57;;
10088;SDS011;51898;49.864;8.550;2024-02-14T05:59:18;10.47;;;5.80;;
10088;SDS011;51898;49.864;8.550;2024-02-14T06:02:19;9.37;;;5.70;;
10088;SDS011;51898;49.864;8.550;2024-02-14T06:05:22;12.33;;;5.80;;
10088;SDS011;51898;49.864;8.550;2024-02-14T06:08:24;7.80;;;5.20;;
10088;SDS011;51898;49.864;8.550;2024-02-14T06:11:27;6.10;;;4.90;;
10088;SDS011;51898;49.864;8.550;2024-02-14T06:14:29;9.47;;;4.83;;
10088;SDS011;51898;49.864;8.550;2024-02-14T06:17:32;6.30;;;5.40;;
10088;SDS011;51898;49.864;8.550;2024-02-14T06:20:34;6.50;;;5.00;;
10088;SDS011;51898;49.864;8.550;2024-02-14T06:23:35;8.47;;;4.87;;
10088;SDS011;51898;49.864;8.550;2024-02-14T06:26:38;8.37;;;4.70;;
10088;SDS011;51898;49.864;8.550;2024-02-14T06:29:43;7.03;;;5.60;;
10088;SDS011;51898;49.864;8.550;2024-02-14T06:32:45;8.27;;;5.93;;
10088;SDS011;51898;49.864;8.550;2024-02-14T06:35:48;7.97;;;5.90;;
10088;SDS011;51898;49.864;8.550;2024-02-14T06:38:50;6.73;;;5.57;;
10088;SDS011;51898;49.864;8.550;2024-02-14T06:41:52;6.87;;;5.17;;
10088;SDS011;51898;49.864;8.550;2024-02-14T06:44:54;5.23;;;4.63;;
10088;SDS011;51898;49.864;8.550;2024-02-14T06:47:56;6.60;;;4.87;;
10088;SDS011;51898;49.864;8.550;2024-02-14T06:50:58;8.20;;;5.13;;
10088;SDS011;51898;49.864;8.550;2024-02-14T06:54:00;8.67;;;5.10;;
10088;SDS011;51898;49.864;8.550;2024-02-14T06:57:02;6.47;;;4.60;;
10088;SDS011;51898;49.864;8.550;2024-02-14T07:00:04;7.67;;;4.80;;
10088;SDS011;51898;49.864;8.550;2024-02-14T07:03:07;9.57;;;5.13;;
10088;SDS011;51898;49.864;8.550;2024-02-14T07:06:09;10.90;;;4.97;;
10088;SDS011;51898;49.864;8.550;2024-02-14T07:09:11;11.67;;;4.37;;
10088;SDS011;51898;49.864;8.550;2024-02-14T07:12:13;6.93;;;4.13;;
10088;SDS011;51898;49.864;8.550;2024-02-14T07:15:16;7.70;;;5.30;;
10088;SDS011;51898;49.864;8.550;2024-02-14T07:18:18;6.90;;;4.73;;
10088;SDS011;51898;49.864;8.550;2024-02-14T07:21:21;6.13;;;4.30;;
10088;SDS011;51898;49.864;8.550;2024-02-14T07:24:23;6.20;;;4.90;;
10088;SDS011;51898;49.864;8.550;2024-02-14T07:27:25;5.57;;;4.10;;
10088;SDS011;51898;49.864;8.550;2024-02-14T07:30:26;7.63;;;4.43;;
10088;SDS011;51898;49.864;8.550;2024-02-14T07:33:28;4.83;;;4.20;;
10088;SDS011;51898;49.864;8.550;2024-02-14T07:36:31;9.47;;;5.17;;
10088;SDS011;51898;49.864;8.550;2024-02-14T07:39:33;6.20;;;4.47;;
10088;SDS011;51898;49.864;8.550;2024-02-14T07:42:36;8.00;;;5.20;;
10088;SDS011;51898;49.864;8.550;2024-02-14T07:45:37;9.80;;;4.50;;
10088;SDS011;51898;49.864;8.550;2024-02-14T07:48:39;9.50;;;4.40;;
10088;SDS011;51898;49.864;8.550;2024-02-14T07:51:41;4.90;;;4.37;;
10088;SDS011;51898;49.864;8.550;2024-02-14T07:54:43;6.17;;;4.27;;
10088;SDS011;51898;49.864;8.550;2024-02-14T07:57:44;8.50;;;4.87;;
10088;SDS011;51898;49.864;8.550;2024-02-14T08:00:46;8.63;;;4.40;;
10088;SDS011;51898;49.864;8.550;2024-02-14T08:03:48;7.77;;;5.00;;
10088;SDS011;51898;49.864;8.550;2024-02-14T08:06:50;7.60;;;4.70;;
10088;SDS011;51898;49.864;8.550;2024-02-14T08:09:51;9.60;;;5.87;;
10088;SDS011;51898;49.864;8.550;2024-02-14T08:12:53;12.80;;;4.87;;
10088;SDS011;51898;49.864;8.550;2024-02-14T08:15:55;6.97;;;4.77;;
10088;SDS011;51898;49.864;8.550;2024-02-14T08:18:57;7.63;;;4.30;;
10088;SDS011;51898;49.864;8.550;2024-02-14T08:22:01;5.43;;;3.80;;
10088;SDS011;51898;49.864;8.550;2024-02-14T08:25:03;10.27;;;4.00;;
10088;SDS011;51898;49.864;8.550;2024-02-14T08:28:05;6.80;;;4.37;;
10088;SDS011;51898;49.864;8.550;2024-02-14T08:31:11;6.07;;;4.33;;
10088;SDS011;51898;49.864;8.550;2024-02-14T08:34:14;9.47;;;4.47;;
10088;SDS011;51898;49.864;8.550;2024-02-14T08:37:16;8.90;;;4.20;;
10088;SDS011;51898;49.864;8.550;2024-02-14T08:40:17;8.50;;;4.70;;
10088;SDS011;51898;49.864;8.550;2024-02-14T08:43:19;7.67;;;4.23;;
10088;SDS011;51898;49.864;8.550;2024-02-14T08:46:21;6.07;;;4.00;;
10088;SDS011;51898;49.864;8.550;2024-02-14T08:49:24;5.50;;;4.20;;
10088;SDS011;51898;49.864;8.550;2024-02-14T08:52:26;7.87;;;4.97;;
10088;SDS011;51898;49.864;8.550;2024-02-14T08:55:28;9.47;;;4.27;;
10088;SDS011;51898;49.864;8.550;2024-02-14T08:58:31;4.47;;;3.50;;
10088;SDS011;51898;49.864;8.550;2024-02-14T09:01:33;6.00;;;4.17;;
10088;SDS011;51898;49.864;8.550;2024-02-14T09:04:35;4.90;;;3.93;;
10088;SDS011;51898;49.864;8.550;2024-02-14T09:07:37;9.43;;;3.83;;
10088;SDS011;51898;49.864;8.550;2024-02-14T09:10:38;8.93;;;4.10;;
10088;SDS011;51898;49.864;8.550;2024-02-14T09:13:40;5.43;;;3.47;;
10088;SDS011;51898;49.864;8.550;2024-02-14T09:16:42;6.47;;;3.80;;
10088;SDS011;51898;49.864;8.550;2024-02-14T09:19:44;5.87;;;3.80;;
10088;SDS011;51898;49.864;8.550;2024-02-14T09:22:46;7.23;;;3.77;;
10088;SDS011;51898;49.864;8.550;2024-02-14T09:25:48;5.80;;;4.17;;
10088;SDS011;51898;49.864;8.550;2024-02-14T09:28:50;7.30;;;4.07;;
10088;SDS011;51898;49.864;8.550;2024-02-14T09:31:52;4.90;;;3.73;;
10088;SDS011;51898;49.864;8.550;2024-02-14T09:34:54;3.90;;;3.50;;
10088;SDS011;51898;49.864;8.550;2024-02-14T09:37:56;6.47;;;3.90;;
10088;SDS011;51898;49.864;8.550;2024-02-14T09:40:58;8.33;;;3.60;;
10088;SDS011;51898;49.864;8.550;2024-02-14T09:44:16;6.13;;;4.33;;
10088;SDS011;51898;49.864;8.550;2024-02-14T09:47:18;7.67;;;4.33;;
10088;SDS011;51898;49.864;8.550;2024-02-14T09:50:20;7.60;;;4.20;;
10088;SDS011;51898;49.864;8.550;2024-02-14T09:53:22;7.37;;;3.53;;
10088;SDS011;51898;49.864;8.550;2024-02-14T09:56:24;7.40;;;4.30;;
10088;SDS011;51898;49.864;8.550;2024-02-14T09:59:26;4.80;;;3.90;;
10088;SDS011;51898;49.864;8.550;2024-02-14T10:02:30;7.03;;;3.97;;
10088;SDS011;51898;49.864;8.550;2024-02-14T10:05:32;5.13;;;3.90;;
10088;SDS011;51898;49.864;8.550;2024-02-14T10:08:34;6.40;;;3.70;;
10088;SDS011;51898;49.864;8.550;2024-02-14T10:11:42;9.83;;;4.40;;
10088;SDS011;51898;49.864;8.550;2024-02-14T10:14:46;3.97;;;3.57;;
10088;SDS011;51898;49.864;8.550;2024-02-14T10:17:48;5.00;;;3.50;;
10088;SDS011;51898;49.864;8.550;2024-02-14T10:20:53;5.40;;;3.43;;
10088;SDS011;51898;49.864;8.550;2024-02-14T10:23:59;6.43;;;3.60;;
10088;SDS011;51898;49.864;8.550;2024-02-14T10:27:01;7.90;;;3.93;;
10088;SDS011;51898;49.864;8.550;2024-02-14T10:30:10;5.47;;;3.70;;
10088;SDS011;51898;49.864;8.550;2024-02-14T10:33:12;4.93;;;3.57;;
10088;SDS011;51898;49.864;8.550;2024-02-14T10:36:27;6.33;;;4.03;;
10088;SDS011;51898;49.864;8.550;2024-02-14T10:39:29;6.27;;;4.00;;
10088;SDS011;51898;49.864;8.550;2024-02-14T10:42:34;7.37;;;4.00;;
10088;SDS011;51898;49.864;8.550;2024-02-14T10:45:36;6.80;;;3.60;;
10088;SDS011;51898;49.864;8.550;2024-02-14T10:48:38;3.80;;;3.10;;
10088;SDS011;51898;49.864;8.550;2024-02-14T10:51:40;6.30;;;3.73;;
10088;SDS011;51898;49.864;8.550;2024-02-14T10:54:48;8.83;;;3.77;;
10088;SDS011;51898;49.864;8.550;2024-02-14T10:57:58;3.27;;;2.90;;
10088;SDS011;51898;49.864;8.550;2024-02-14T11:01:00;4.37;;;3.03;;
10088;SDS011;51898;49.864;8.550;2024-02-14T11:04:03;4.73;;;2.90;;
10088;SDS011;51898;49.864;8.550;2024-02-14T11:07:09;3.63;;;2.77;;
10088;SDS011;51898;49.864;8.550;2024-02-14T11:10:15;4.70;;;2.93;;
10088;SDS011;51898;49.864;8.550;2024-02-14T11:13:18;3.30;;;2.50;;
10088;SDS011;51898;49.864;8.550;2024-02-14T11:16:23;3.80;;;2.53;;
10088;SDS011;51898;49.864;8.550;2024-02-14T11:19:30;2.60;;;2.40;;
10088;SDS011;51898;49.864;8.550;2024-02-14T11:22:37;5.93;;;2.63;;
10088;SDS011;51898;49.864;8.550;2024-02-14T11:25:39;3.93;;;2.87;;
10088;SDS011;51898;49.864;8.550;2024-02-14T11:28:41;3.17;;;2.37;;
10088;SDS011;51898;49.864;8.550;2024-02-14T11:31:44;2.23;;;2.03;;
10088;SDS011;51898;49.864;8.550;2024-02-14T11:34:55;3.93;;;2.60;;
10088;SDS011;51898;49.864;8.550;2024-02-14T11:37:57;3.53;;;2.70;;
10088;SDS011;51898;49.864;8.550;2024-02-14T11:41:02;5.27;;;3.07;;
10088;SDS011;51898;49.864;8.550;2024-02-14T11:44:04;3.63;;;2.30;;
10088;SDS011;51898;49.864;8.550;2024-02-14T11:47:06;5.40;;;2.93;;
10088;SDS011;51898;49.864;8.550;2024-02-14T11:50:08;3.10;;;2.77;;
10088;SDS011;51898;49.864;8.550;2024-02-14T11:53:12;6.30;;;2.87;;
10088;SDS011;51898;49.864;8.550;2024-02-14T11:56:16;3.67;;;2.60;;
10088;SDS011;51898;49.864;8.550;2024-02-14T11:59:17;4.50;;;3.00;;
10088;SDS011;51898;49.864;8.550;2024-02-14T12:02:22;2.80;;;2.50;;
10088;SDS011;51898;49.864;8.550;2024-02-14T12:05:24;5.37;;;2.60;;
10088;SDS011;51898;49.864;8.550;2024-02-14T12:08:26;3.20;;;2.50;;
10088;SDS011;51898;49.864;8.550;2024-02-14T12:11:28;5.27;;;2.70;;
10088;SDS011;51898;49.864;8.550;2024-02-14T12:14:32;5.50;;;2.90;;
10088;SDS011;51898;49.864;8.550;2024-02-14T12:17:34;5.33;;;2.60;;
10088;SDS011;51898;49.864;8.550;2024-02-14T12:20:36;3.77;;;2.60;;
10088;SDS011;51898;49.864;8.550;2024-02-14T12:23:42;4.10;;;2.47;;
10088;SDS011;51898;49.864;8.550;2024-02-14T12:26:44;4.90;;;2.23;;
10088;SDS011;51898;49.864;8.550;2024-02-14T12:29:46;2.63;;;1.90;;
10088;SDS011;51898;49.864;8.550;2024-02-14T12:32:57;3.87;;;2.40;;
10088;SDS011;51898;49.864;8.550;2024-02-14T12:36:01;3.77;;;2.30;;
10088;SDS011;51898;49.864;8.550;2024-02-14T12:39:04;2.77;;;2.43;;
10088;SDS011;51898;49.864;8.550;2024-02-14T12:42:07;3.23;;;2.20;;
10088;SDS011;51898;49.864;8.550;2024-02-14T12:45:09;4.73;;;2.20;;
10088;SDS011;51898;49.864;8.550;2024-02-14T12:48:12;6.23;;;2.30;;
10088;SDS011;51898;49.864;8.550;2024-02-14T12:51:15;2.73;;;2.40;;
10088;SDS011;51898;49.864;8.550;2024-02-14T12:54:18;2.20;;;2.00;;
10088;SDS011;51898;49.864;8.550;2024-02-14T12:57:20;5.23;;;2.20;;
10088;SDS011;51898;49.864;8.550;2024-02-14T13:00:23;2.90;;;1.90;;
10088;SDS011;51898;49.864;8.550;2024-02-14T13:03:25;2.40;;;2.20;;
10088;SDS011;51898;49.864;8.550;2024-02-14T13:06:27;3.20;;;2.50;;
10088;SDS011;51898;49.864;8.550;2024-02-14T13:09:29;2.90;;;2.40;;
10088;SDS011;51898;49.864;8.550;2024-02-14T13:12:31;4.50;;;2.67;;
10088;SDS011;51898;49.864;8.550;2024-02-14T13:15:32;3.10;;;2.13;;
10088;SDS011;51898;49.864;8.550;2024-02-14T13:18:34;4.10;;;2.77;;
10088;SDS011;51898;49.864;8.550;2024-02-14T13:21:37;3.23;;;2.80;;
10088;SDS011;51898;49.864;8.550;2024-02-14T13:24:40;4.17;;;2.43;;
10088;SDS011;51898;49.864;8.550;2024-02-14T13:27:43;4.37;;;2.50;;
10088;SDS011;51898;49.864;8.550;2024-02-14T13:30:46;4.53;;;2.60;;
10088;SDS011;51898;49.864;8.550;2024-02-14T13:33:53;5.73;;;3.17;;
10088;SDS011;51898;49.864;8.550;2024-02-14T13:36:55;4.57;;;2.80;;
10088;SDS011;51898;49.864;8.550;2024-02-14T13:39:58;4.97;;;2.60;;
10088;SDS011;51898;49.864;8.550;2024-02-14T13:42:59;3.73;;;2.70;;
10088;SDS011;51898;49.864;8.550;2024-02-14T13:46:01;4.10;;;3.20;;
10088;SDS011;51898;49.864;8.550;2024-02-14T13:49:03;3.17;;;2.77;;
10088;SDS011;51898;49.864;8.550;2024-02-14T13:52:05;4.30;;;2.73;;
10088;SDS011;51898;49.864;8.550;2024-02-14T13:55:07;4.20;;;3.47;;
10088;SDS011;51898;49.864;8.550;2024-02-14T13:58:09;3.23;;;2.93;;
10088;SDS011;51898;49.864;8.550;2024-02-14T14:01:16;4.17;;;2.50;;
10088;SDS011;51898;49.864;8.550;2024-02-14T14:04:18;3.73;;;2.40;;
10088;SDS011;51898;49.864;8.550;2024-02-14T14:07:21;2.53;;;2.33;;
10088;SDS011;51898;49.864;8.550;2024-02-14T14:10:25;2.93;;;2.10;;
10088;SDS011;51898;49.864;8.550;2024-02-14T14:13:28;2.20;;;2.00;;
10088;SDS011;51898;49.864;8.550;2024-02-14T14:16:32;4.80;;;2.00;;
10088;SDS011;51898;49.864;8.550;2024-02-14T14:19:34;3.40;;;2.00;;
10088;SDS011;51898;49.864;8.550;2024-02-14T14:22:36;2.23;;;2.07;;
10088;SDS011;51898;49.864;8.550;2024-02-14T14:25:39;3.20;;;2.30;;
10088;SDS011;51898;49.864;8.550;2024-02-14T14:28:40;3.13;;;2.00;;
10088;SDS011;51898;49.864;8.550;2024-02-14T14:31:43;6.43;;;2.33;;
10088;SDS011;51898;49.864;8.550;2024-02-14T14:34:45;3.20;;;2.40;;
10088;SDS011;51898;49.864;8.550;2024-02-14T14:37:47;3.20;;;2.33;;
10088;SDS011;51898;49.864;8.550;2024-02-14T14:40:49;4.97;;;2.80;;
10088;SDS011;51898;49.864;8.550;2024-02-14T14:43:50;5.73;;;2.90;;
10088;SDS011;51898;49.864;8.550;2024-02-14T14:46:52;4.10;;;2.70;;
10088;SDS011;51898;49.864;8.550;2024-02-14T14:49:54;4.07;;;2.80;;
10088;SDS011;51898;49.864;8.550;2024-02-14T14:52:56;4.83;;;3.00;;
10088;SDS011;51898;49.864;8.550;2024-02-14T14:55:59;5.23;;;3.33;;
10088;SDS011;51898;49.864;8.550;2024-02-14T14:59:02;4.90;;;3.33;;
10088;SDS011;51898;49.864;8.550;2024-02-14T15:02:04;6.73;;;3.50;;
10088;SDS011;51898;49.864;8.550;2024-02-14T15:05:10;5.10;;;3.63;;
10088;SDS011;51898;49.864;8.550;2024-02-14T15:08:13;8.00;;;3.30;;
10088;SDS011;51898;49.864;8.550;2024-02-14T15:11:15;7.10;;;3.47;;
10088;SDS011;51898;49.864;8.550;2024-02-14T15:14:19;7.50;;;3.90;;
10088;SDS011;51898;49.864;8.550;2024-02-14T15:17:20;5.10;;;3.83;;
10088;SDS011;51898;49.864;8.550;2024-02-14T15:20:23;6.70;;;4.10;;
10088;SDS011;51898;49.864;8.550;2024-02-14T15:23:25;5.00;;;4.13;;
10088;SDS011;51898;49.864;8.550;2024-02-14T15:26:27;5.00;;;3.63;;
10088;SDS011;51898;49.864;8.550;2024-02-14T15:29:30;6.07;;;3.63;;
10088;SDS011;51898;49.864;8.550;2024-02-14T15:32:51;6.27;;;3.60;;
10088;SDS011;51898;49.864;8.550;2024-02-14T15:36:15;7.37;;;3.60;;
10088;SDS011;51898;49.864;8.550;2024-02-14T15:39:17;8.87;;;3.57;;
10088;SDS011;51898;49.864;8.550;2024-02-14T15:42:19;4.33;;;3.47;;
10088;SDS011;51898;49.864;8.550;2024-02-14T15:45:21;3.73;;;3.43;;
10088;SDS011;51898;49.864;8.550;2024-02-14T15:48:23;4.63;;;3.40;;
10088;SDS011;51898;49.864;8.550;2024-02-14T15:51:28;3.40;;;3.07;;
10088;SDS011;51898;49.864;8.550;2024-02-14T15:54:29;4.17;;;3.37;;
10088;SDS011;51898;49.864;8.550;2024-02-14T15:57:31;4.43;;;2.90;;
10088;SDS011;51898;49.864;8.550;2024-02-14T16:00:33;5.90;;;3.17;;
10088;SDS011;51898;49.864;8.550;2024-02-14T16:03:35;4.40;;;2.80;;
10088;SDS011;51898;49.864;8.550;2024-02-14T16:06:37;2.53;;;2.33;;
10088;SDS011;51898;49.864;8.550;2024-02-14T16:09:39;3.60;;;2.43;;
10088;SDS011;51898;49.864;8.550;2024-02-14T16:12:44;5.10;;;2.57;;
10088;SDS011;51898;49.864;8.550;2024-02-14T16:15:46;2.77;;;2.40;;
10088;SDS011;51898;49.864;8.550;2024-02-14T16:18:48;3.10;;;2.70;;
10088;SDS011;51898;49.864;8.550;2024-02-14T16:21:50;2.80;;;2.40;;
10088;SDS011;51898;49.864;8.550;2024-02-14T16:25:07;2.80;;;2.50;;
10088;SDS011;51898;49.864;8.550;2024-02-14T16:28:09;3.00;;;1.90;;
10088;SDS011;51898;49.864;8.550;2024-02-14T16:31:11;2.33;;;2.13;;
10088;SDS011;51898;49.864;8.550;2024-02-14T16:34:12;2.73;;;2.40;;
10088;SDS011;51898;49.864;8.550;2024-02-14T16:37:14;2.13;;;1.93;;
10088;SDS011;51898;49.864;8.550;2024-02-14T16:40:20;2.87;;;2.40;;
10088;SDS011;51898;49.864;8.550;2024-02-14T16:43:22;2.90;;;2.43;;
10088;SDS011;51898;49.864;8.550;2024-02-14T16:46:23;5.40;;;3.53;;
10088;SDS011;51898;49.864;8.550;2024-02-14T16:49:25;4.07;;;3.70;;
10088;SDS011;51898;49.864;8.550;2024-02-14T16:52:27;6.27;;;4.47;;
10088;SDS011;51898;49.864;8.550;2024-02-14T16:55:29;5.67;;;4.70;;
10088;SDS011;51898;49.864;8.550;2024-02-14T16:58:30;6.20;;;4.27;;
10088;SDS011;51898;49.864;8.550;2024-02-14T17:01:32;5.50;;;4.03;;
10088;SDS011;51898;49.864;8.550;2024-02-14T17:04:34;6.33;;;5.30;;
10088;SDS011;51898;49.864;8.550;2024-02-14T17:07:36;5.80;;;3.73;;
10088;SDS011;51898;49.864;8.550;2024-02-14T17:10:38;8.60;;;4.37;;
10088;SDS011;51898;49.864;8.550;2024-02-14T17:13:40;4.23;;;3.83;;
10088;SDS011;51898;49.864;8.550;2024-02-14T17:16:45;6.63;;;4.57;;
10088;SDS011;51898;49.864;8.550;2024-02-14T17:19:48;5.40;;;4.90;;
10088;SDS011;51898;49.864;8.550;2024-02-14T17:22:50;6.77;;;5.07;;
10088;SDS011;51898;49.864;8.550;2024-02-14T17:25:52;5.33;;;4.70;;
10088;SDS011;51898;49.864;8.550;2024-02-14T17:28:55;5.23;;;4.70;;
10088;SDS011;51898;49.864;8.550;2024-02-14T17:31:57;4.30;;;3.90;;
10088;SDS011;51898;49.864;8.550;2024-02-14T17:34:59;5.00;;;4.20;;
10088;SDS011;51898;49.864;8.550;2024-02-14T17:38:01;8.67;;;4.33;;
10088;SDS011;51898;49.864;8.550;2024-02-14T17:41:04;10.70;;;5.40;;
10088;SDS011;51898;49.864;8.550;2024-02-14T17:44:07;5.70;;;5.17;;
10088;SDS011;51898;49.864;8.550;2024-02-14T17:47:09;5.30;;;4.80;;
10088;SDS011;51898;49.864;8.550;2024-02-14T17:50:11;8.47;;;5.63;;
10088;SDS011;51898;49.864;8.550;2024-02-14T17:53:13;7.00;;;5.17;;
10088;SDS011;51898;49.864;8.550;2024-02-14T17:56:14;8.13;;;5.43;;
10088;SDS011;51898;49.864;8.550;2024-02-14T17:59:16;4.70;;;4.30;;
10088;SDS011;51898;49.864;8.550;2024-02-14T18:02:19;5.63;;;4.83;;
10088;SDS011;51898;49.864;8.550;2024-02-14T18:05:21;8.73;;;5.77;;
10088;SDS011;51898;49.864;8.550;2024-02-14T18:08:23;7.53;;;5.90;;
10088;SDS011;51898;49.864;8.550;2024-02-14T18:11:25;10.00;;;6.33;;
10088;SDS011;51898;49.864;8.550;2024-02-14T18:14:26;8.50;;;6.97;;
10088;SDS011;51898;49.864;8.550;2024-02-14T18:17:29;7.97;;;6.80;;
10088;SDS011;51898;49.864;8.550;2024-02-14T18:20:31;8.60;;;6.50;;